Impacts METAR Board
IDs:

KSTC - St Cloud Rgnl, MN, US

Updated at: 1100 UTC 17 Jul 2018
Potential Impact None Slight Moderate High
Time 16/23Z 17/00Z 17/01Z 17/02Z 17/03Z 17/04Z 17/05Z 17/06Z 17/07Z 17/08Z 17/09Z 17/10Z 17/11Z
Temp83 80 77 72 69 67 63 61 58 57 55 54 52
Dewpt55 56 57 56 54 53 53 53 53 53 53 53 51
Altim30.01 30.01 30.01 30.02 30.05 30.06 30.08 30.09 30.11 30.11 30.12 30.12 30.14
VIS10 10 10 10 10 10 10 10 10 10 10 10 10
CIG-- -- -- -- -- 80 -- -- -- -- -- -- --
CoverFEWCLRCLRCLRSCTBKNCLRCLRCLRCLRCLRCLRCLR
FltCatVFRVFRVFRVFRVFRVFRVFRVFRVFRVFRVFRVFRVFR
WX--------------------------
WDir28031034033034036036031000000
WSpd13 14 8 3 4 4 4 3 0 0 0 0 0
WGst-- 22 -- -- -- -- -- -- -- -- -- -- --
Raw hourly METARs
KSTC 162253Z 28013KT 10SM FEW070 28/13 A3001 RMK AO2 SLP168 T02830128
KSTC 162353Z 31014G22KT 10SM CLR 27/13 A3001 RMK AO2 SLP167 T02670133 10289 20267 56005
KSTC 170053Z 34008KT 10SM CLR 25/14 A3001 RMK AO2 SLP166 T02500139
KSTC 170153Z 33003KT 10SM CLR 22/13 A3002 RMK AO2 SLP168 T02220133
KSTC 170253Z 34004KT 10SM SCT060 21/12 A3005 RMK AO2 SLP179 T02060122 53012
KSTC 170353Z 36004KT 10SM SCT060 BKN080 19/12 A3006 RMK AO2 SLP184 T01940117
KSTC 170453Z AUTO 36004KT 10SM CLR 17/12 A3008 RMK AO2 SLP189 T01720117
KSTC 170553Z AUTO 31003KT 10SM CLR 16/12 A3009 RMK AO2 SLP192 T01610117 10267 20161 402890122 51013
KSTC 170653Z AUTO 00000KT 10SM CLR 14/12 A3011 RMK AO2 SLP200 T01440117
KSTC 170753Z AUTO 00000KT 10SM CLR 14/12 A3011 RMK AO2 SLP201 T01390117 $
KSTC 170853Z AUTO 00000KT 10SM CLR 13/12 A3012 RMK AO2 SLP204 T01280117 51010 $
KSTC 170953Z AUTO 00000KT 10SM CLR 12/12 A3012 RMK AO2 SLP205 T01220117 $
KSTC 171053Z AUTO 00000KT 10SM CLR 11/11 A3014 RMK AO2 SLP211 T01110106 $



Page loaded:  11:27 UTC  |   04:27 AM Pacific  |   05:27 AM Mountain  |   06:27 AM Central  |   07:27 AM Eastern

 

ADVISORIES

FORECASTS

FORECASTS

OBSERVATIONS

USER TOOLS

ABOUT US